Time;durP1;ratioP1;P1;durP2;ratioP2;P2;SDS_P1;SDS_P2;PMS_P1;PMS_P2;Temp;Humidity;BMP_temperature;BMP_pressure;BME280_temperature;BME280_humidity;BME280_pressure;Samples;Min_cycle;Max_cycle;Signal;HPM_P1;HPM_P2
2022/01/23 00:00:15;;;;;;;18.33;17.43;;;6.20;76.70;;;;;;4894007;29;20048;-87
2022/01/23 00:02:42;;;;;;;18.60;17.40;;;6.20;76.80;;;;;;4879712;29;20044;-87
2022/01/23 00:05:08;;;;;;;17.13;16.33;;;6.20;76.90;;;;;;4878151;29;20083;-87
2022/01/23 00:07:35;;;;;;;17.60;16.80;;;6.20;76.80;;;;;;4860621;29;20049;-88
2022/01/23 00:10:02;;;;;;;18.13;17.33;;;6.20;76.80;;;;;;4876039;29;20044;-86
2022/01/23 00:12:32;;;;;;;18.50;17.60;;;6.20;76.80;;;;;;4884389;29;20045;-86
2022/01/23 00:17:43;;;;;;;17.60;16.80;;;6.30;76.70;;;;;;4879305;29;20438;-87
2022/01/23 00:20:12;;;;;;;20.07;18.33;;;6.20;76.60;;;;;;4878225;29;20056;-88
2022/01/23 00:22:42;;;;;;;18.00;17.10;;;6.30;76.70;;;;;;4861212;29;20049;-87
2022/01/23 00:30:40;;;;;;;18.30;17.27;;;6.30;76.60;;;;;;4956748;28;20046;-86
2022/01/23 00:33:06;;;;;;;18.07;17.17;;;6.20;77.40;;;;;;4949549;29;20059;-87
2022/01/23 00:35:33;;;;;;;17.03;16.23;;;6.20;76.70;;;;;;4959835;28;20039;-87
2022/01/23 00:37:59;;;;;;;17.23;16.43;;;6.20;76.80;;;;;;4921893;29;20470;-87
2022/01/23 00:40:27;;;;;;;17.50;16.70;;;6.20;76.90;;;;;;4919887;29;20055;-88
2022/01/23 00:42:54;;;;;;;17.47;16.60;;;6.20;76.90;;;;;;4946937;29;20030;-87
2022/01/23 00:45:30;;;;;;;18.27;17.40;;;6.20;76.90;;;;;;4936174;28;20043;-87
2022/01/23 00:48:03;;;;;;;18.23;17.33;;;6.10;76.90;;;;;;4938150;29;20051;-87
2022/01/23 00:50:34;;;;;;;17.60;16.80;;;6.10;77.00;;;;;;4922373;29;20054;-88
2022/01/23 00:53:01;;;;;;;18.35;17.45;;;6.10;77.00;;;;;;4954227;29;20027;-88
2022/01/23 00:55:27;;;;;;;18.67;17.77;;;6.00;77.10;;;;;;4935718;29;20047;-87
2022/01/23 00:57:53;;;;;;;18.10;17.23;;;6.00;77.20;;;;;;4954413;28;20058;-87
2022/01/23 01:00:19;;;;;;;18.43;17.53;;;6.00;77.20;;;;;;4931190;28;20091;-88
2022/01/23 01:02:46;;;;;;;18.07;17.17;;;6.00;77.20;;;;;;4936703;29;20322;-88
2022/01/23 01:05:12;;;;;;;17.87;17.07;;;6.00;77.30;;;;;;4921333;29;20039;-88
2022/01/23 01:07:38;;;;;;;18.73;17.73;;;6.00;77.30;;;;;;4953501;29;20055;-87
2022/01/23 01:10:11;;;;;;;18.63;17.73;;;6.00;77.30;;;;;;4967007;28;20114;-87
2022/01/23 01:12:45;;;;;;;17.63;16.83;;;6.00;77.20;;;;;;4950476;29;20031;-87
2022/01/23 01:31:38;;;;;;;19.03;18.03;;;6.10;77.00;;;;;;4937336;28;20406;-86
2022/01/23 01:34:16;;;;;;;18.40;17.53;;;6.20;77.00;;;;;;4926550;29;20051;-87
2022/01/23 01:36:47;;;;;;;18.43;17.57;;;6.10;77.00;;;;;;4921488;29;20402;-87
2022/01/23 01:39:14;;;;;;;17.98;17.17;;;6.10;77.00;;;;;;4953025;28;20377;-87
2022/01/23 01:41:41;;;;;;;17.83;17.03;;;6.10;77.10;;;;;;4966928;28;20429;-87
2022/01/23 01:44:07;;;;;;;18.23;17.43;;;6.10;77.20;;;;;;4935292;29;20031;-87
2022/01/23 01:46:33;;;;;;;18.93;18.03;;;6.00;77.30;;;;;;4935918;29;20031;-87
2022/01/23 01:48:59;;;;;;;18.37;17.53;;;6.00;77.40;;;;;;4931321;29;20054;-87
2022/01/23 01:51:30;;;;;;;18.60;17.70;;;5.90;77.50;;;;;;4935827;29;20051;-87
2022/01/23 01:54:03;;;;;;;19.02;18.13;;;5.90;77.50;;;;;;4936892;29;20117;-87
2022/01/23 01:56:36;;;;;;;18.57;17.50;;;6.00;77.60;;;;;;4925176;29;20034;-87
2022/01/23 02:00:13;;;;;;;18.10;17.30;;;5.90;77.50;;;;;;4936870;29;20410;-86
2022/01/23 02:09:54;;;;;;;17.73;16.93;;;5.90;77.50;;;;;;4955549;28;20038;-88
2022/01/23 02:15:26;;;;;;;17.03;16.23;;;5.90;77.50;;;;;;4944649;29;20073;-87
2022/01/23 02:23:55;;;;;;;17.53;16.73;;;5.90;77.60;;;;;;4957897;28;20042;-86
2022/01/23 02:50:58;;;;;;;18.40;17.50;;;6.00;77.60;;;;;;4942169;29;20062;-90
2022/01/23 02:56:06;;;;;;;18.53;17.63;;;6.00;77.70;;;;;;4954338;28;20055;-89
2022/01/23 02:58:37;;;;;;;18.40;17.40;;;6.00;77.60;;;;;;4956842;28;20051;-89
2022/01/23 03:01:16;;;;;;;18.35;17.45;;;6.00;77.60;;;;;;4951866;28;20370;-89
2022/01/23 03:03:45;;;;;;;18.33;17.43;;;5.90;77.60;;;;;;4969513;28;20496;-89
2022/01/23 03:12:02;;;;;;;;;;;5.90;77.70;;;;;;4954627;28;20034;-86
2022/01/23 03:25:44;;;;;;;18.93;18.03;;;5.70;78.20;;;;;;4952173;28;20504;-87
2022/01/23 03:31:20;;;;;;;17.73;16.93;;;5.70;78.60;;;;;;4937829;28;20036;-88
2022/01/23 03:33:46;;;;;;;17.43;16.63;;;5.70;78.60;;;;;;4950629;29;20186;-87
2022/01/23 03:36:13;;;;;;;18.67;17.67;;;5.70;78.60;;;;;;4935558;29;20469;-86
2022/01/23 03:38:39;;;;;;;17.50;16.70;;;5.70;78.50;;;;;;4950767;29;20035;-87
2022/01/23 03:41:05;;;;;;;19.23;17.80;;;5.70;78.40;;;;;;4951388;29;20055;-87
2022/01/23 03:43:34;;;;;;;17.63;16.73;;;5.70;78.40;;;;;;4936251;29;20512;-87
2022/01/23 03:51:12;;;;;;;18.10;17.30;;;5.80;78.30;;;;;;4952884;28;20216;-87
2022/01/23 03:53:39;;;;;;;17.30;16.50;;;5.80;78.40;;;;;;4951806;29;20047;-87
2022/01/23 03:56:05;;;;;;;17.43;16.63;;;5.70;78.50;;;;;;4951064;29;20401;-87
2022/01/23 03:58:32;;;;;;;18.20;17.30;;;5.70;78.60;;;;;;4933557;29;20461;-86
2022/01/23 04:00:58;;;;;;;18.57;17.67;;;5.70;78.70;;;;;;4949190;28;20046;-88
2022/01/23 04:03:24;;;;;;;17.70;16.90;;;5.70;78.70;;;;;;4949536;28;20035;-87
2022/01/23 04:05:50;;;;;;;18.30;17.50;;;5.70;78.70;;;;;;4935878;29;20417;-87
2022/01/23 04:08:20;;;;;;;18.10;17.20;;;5.70;78.80;;;;;;4941585;29;20043;-87
2022/01/23 04:10:46;;;;;;;23.43;22.23;;;5.70;78.80;;;;;;4934980;29;20047;-87
2022/01/23 04:13:21;;;;;;;19.33;18.43;;;5.70;78.90;;;;;;4936417;29;20043;-87
2022/01/23 04:16:12;;;;;;;18.57;17.50;;;5.60;78.90;;;;;;4921953;29;20039;-87
2022/01/23 05:01:07;;;;;;;18.80;17.53;;;5.60;79.30;;;;;;4951180;28;20038;-80
2022/01/23 05:06:25;;;;;;;17.80;17.00;;;5.60;79.40;;;;;;4949353;28;20100;-81
2022/01/23 05:08:51;;;;;;;17.33;16.53;;;5.60;79.30;;;;;;4949853;28;20055;-81
2022/01/23 05:11:17;;;;;;;18.87;17.97;;;5.50;79.30;;;;;;4950690;29;20463;-80
2022/01/23 05:13:43;;;;;;;18.40;17.50;;;5.50;79.40;;;;;;4952580;29;20054;-80
2022/01/23 05:16:10;;;;;;;17.47;16.67;;;5.50;79.50;;;;;;4949402;28;20043;-80
2022/01/23 05:18:37;;;;;;;18.50;17.50;;;5.50;79.60;;;;;;4949439;29;20027;-81
2022/01/23 05:23:49;;;;;;;17.23;16.40;;;5.50;79.60;;;;;;4963458;28;20043;-79
2022/01/23 05:26:15;;;;;;;18.63;17.60;;;5.50;79.80;;;;;;4952435;29;20039;-79
2022/01/23 05:28:41;;;;;;;17.80;16.90;;;5.40;79.80;;;;;;4952502;28;20035;-79
2022/01/23 05:31:07;;;;;;;19.93;18.97;;;5.40;79.90;;;;;;4953780;28;20039;-79
2022/01/23 05:33:33;;;;;;;19.40;18.03;;;5.40;79.90;;;;;;4951206;29;20028;-79
2022/01/23 05:35:59;;;;;;;17.30;16.50;;;5.40;79.90;;;;;;4953267;29;20047;-77
2022/01/23 05:38:25;;;;;;;17.17;16.37;;;5.40;79.90;;;;;;4947986;29;20394;-78
2022/01/23 05:40:57;;;;;;;18.17;16.97;;;5.40;79.90;;;;;;4956774;29;20031;-77
2022/01/23 05:43:23;;;;;;;;;;;5.40;80.00;;;;;;4954486;29;20031;-77
2022/01/23 05:45:49;;;;;;;18.47;17.47;;;5.40;79.90;;;;;;4956003;28;19915;-77
2022/01/23 05:48:16;;;;;;;18.90;18.00;;;5.50;79.80;;;;;;4952481;29;20501;-78
2022/01/23 05:50:42;;;;;;;17.57;16.67;;;5.50;79.80;;;;;;4954590;28;20040;-78
2022/01/23 05:53:08;;;;;;;17.10;16.13;;;5.50;79.80;;;;;;4955053;29;20031;-77
2022/01/23 05:55:34;;;;;;;16.17;15.37;;;5.50;79.80;;;;;;4934049;29;20048;-77
2022/01/23 05:58:00;;;;;;;17.13;16.33;;;5.50;79.80;;;;;;4939388;29;20039;-77
2022/01/23 06:00:27;;;;;;;17.50;16.70;;;5.50;79.80;;;;;;4952911;28;20478;-78
2022/01/23 06:02:53;;;;;;;18.07;17.07;;;5.50;79.80;;;;;;4952753;29;20029;-77
2022/01/23 06:05:19;;;;;;;17.67;16.80;;;5.50;79.80;;;;;;4945202;29;20040;-77
2022/01/23 06:07:46;;;;;;;17.30;16.47;;;5.50;79.80;;;;;;4967066;28;20035;-78
2022/01/23 06:10:21;;;;;;;17.07;16.27;;;5.50;79.80;;;;;;4953484;28;20051;-77
2022/01/23 06:12:47;;;;;;;17.10;16.30;;;5.50;79.80;;;;;;4947672;29;20032;-79
2022/01/23 06:15:14;;;;;;;17.03;16.23;;;5.50;80.50;;;;;;4948094;28;20520;-78
2022/01/23 06:17:40;;;;;;;17.20;16.40;;;5.50;79.80;;;;;;4955766;29;20027;-79
2022/01/23 06:20:10;;;;;;;17.60;16.53;;;5.50;79.70;;;;;;4942311;29;20394;-79
2022/01/23 06:22:36;;;;;;;18.23;17.25;;;5.50;79.80;;;;;;4945449;29;20498;-79
2022/01/23 06:25:05;;;;;;;17.90;16.80;;;5.60;79.70;;;;;;4951436;29;20497;-79
2022/01/23 06:27:32;;;;;;;20.23;19.33;;;5.60;79.70;;;;;;4951173;29;20035;-79
2022/01/23 06:29:58;;;;;;;35.23;33.37;;;5.60;79.70;;;;;;4951493;29;20500;-79
2022/01/23 06:32:27;;;;;;;19.13;18.17;;;5.50;79.70;;;;;;4951150;28;20046;-79
2022/01/23 06:34:53;;;;;;;16.73;15.93;;;5.50;79.90;;;;;;4955972;29;20043;-79
2022/01/23 06:37:19;;;;;;;17.40;16.60;;;5.40;79.90;;;;;;4948257;29;20038;-79
2022/01/23 06:39:45;;;;;;;17.17;16.27;;;5.40;80.00;;;;;;4952516;28;20496;-79
2022/01/23 06:42:12;;;;;;;17.70;16.57;;;5.40;80.00;;;;;;4969762;28;20035;-78
2022/01/23 06:44:38;;;;;;;19.27;18.37;;;5.40;80.00;;;;;;4940615;29;20035;-79
2022/01/23 06:47:04;;;;;;;17.03;16.23;;;5.40;80.00;;;;;;4955805;28;20043;-79
2022/01/23 06:49:31;;;;;;;16.67;15.87;;;5.40;80.00;;;;;;4968109;28;20437;-79
2022/01/23 06:51:57;;;;;;;17.40;16.50;;;5.40;80.10;;;;;;4954440;29;20035;-79
2022/01/23 06:54:23;;;;;;;18.03;17.13;;;5.40;80.10;;;;;;4951905;29;20405;-79
2022/01/23 06:56:49;;;;;;;18.57;17.67;;;5.40;80.00;;;;;;4955925;28;20429;-79
2022/01/23 06:59:15;;;;;;;18.27;17.40;;;5.40;80.10;;;;;;4952719;29;20053;-79
2022/01/23 07:01:41;;;;;;;17.50;16.70;;;5.40;80.10;;;;;;4956099;28;20470;-79
2022/01/23 07:04:07;;;;;;;16.80;16.00;;;5.40;80.20;;;;;;4961734;28;20028;-79
2022/01/23 07:06:33;;;;;;;19.40;18.50;;;5.30;80.10;;;;;;4945687;29;20043;-79
2022/01/23 07:08:59;;;;;;;18.63;17.43;;;5.30;80.10;;;;;;4955010;29;20035;-79
2022/01/23 07:11:25;;;;;;;16.60;15.80;;;5.40;80.20;;;;;;4954021;29;20501;-79
2022/01/23 07:13:52;;;;;;;16.93;16.13;;;5.40;80.20;;;;;;4954888;29;20039;-79
2022/01/23 07:16:18;;;;;;;17.97;17.17;;;5.30;80.10;;;;;;4954826;28;20043;-79
2022/01/23 07:18:44;;;;;;;17.13;16.33;;;5.30;80.20;;;;;;4954692;29;20039;-79
2022/01/23 07:21:11;;;;;;;17.93;17.13;;;5.30;80.20;;;;;;4969667;28;20042;-79
2022/01/23 07:23:37;;;;;;;18.37;17.47;;;5.30;80.30;;;;;;4941260;29;20035;-79
2022/01/23 07:26:03;;;;;;;18.03;17.13;;;5.30;80.30;;;;;;4955282;29;20474;-79
2022/01/23 07:28:38;;;;;;;17.67;16.77;;;5.30;80.30;;;;;;4955304;29;20046;-79
2022/01/23 07:31:06;;;;;;;17.63;16.73;;;5.30;80.30;;;;;;4954115;28;20040;-79
2022/01/23 07:33:36;;;;;;;17.80;16.90;;;5.30;80.20;;;;;;4954652;29;20035;-80
2022/01/23 07:36:03;;;;;;;24.90;23.20;;;5.30;80.20;;;;;;4953836;29;20054;-79
2022/01/23 07:38:30;;;;;;;19.63;18.67;;;5.30;80.30;;;;;;4939781;29;20035;-79
2022/01/23 07:40:56;;;;;;;17.57;16.73;;;5.20;80.20;;;;;;4955594;28;20047;-79
2022/01/23 07:43:22;;;;;;;18.83;17.27;;;5.20;80.20;;;;;;4954924;29;20482;-79
2022/01/23 07:45:48;;;;;;;17.93;17.03;;;5.20;80.20;;;;;;4947767;28;20039;-79
2022/01/23 07:48:14;;;;;;;17.97;16.90;;;5.30;80.30;;;;;;4941201;29;20482;-83
2022/01/23 07:50:40;;;;;;;19.80;18.80;;;5.20;80.20;;;;;;4950051;28;20047;-83
2022/01/23 07:53:06;;;;;;;16.90;16.10;;;5.20;80.20;;;;;;4953223;29;20038;-81
2022/01/23 07:55:32;;;;;;;16.60;15.80;;;5.20;80.10;;;;;;4949211;29;20043;-82
2022/01/23 07:58:14;;;;;;;17.40;16.47;;;5.20;80.10;;;;;;4955979;28;20055;-83
2022/01/23 08:00:41;;;;;;;19.45;18.55;;;5.20;80.20;;;;;;4951267;28;20035;-83
2022/01/23 08:03:07;;;;;;;18.63;17.63;;;5.20;80.20;;;;;;4949859;29;20043;-87
2022/01/23 08:05:33;;;;;;;24.07;22.33;;;5.20;80.20;;;;;;4950331;28;20050;-81
2022/01/23 08:07:59;;;;;;;17.13;16.33;;;5.20;80.20;;;;;;4954117;29;20358;-82
2022/01/23 08:10:25;;;;;;;16.37;15.63;;;5.10;80.30;;;;;;4951036;29;20042;-83
2022/01/23 08:12:51;;;;;;;16.90;16.10;;;5.10;80.20;;;;;;4956609;28;20385;-82
2022/01/23 08:15:18;;;;;;;17.23;16.43;;;5.10;80.30;;;;;;4953339;28;20031;-82
2022/01/23 08:17:45;;;;;;;17.93;17.03;;;5.20;80.40;;;;;;4950668;29;20027;-83
2022/01/23 08:20:11;;;;;;;17.50;16.67;;;5.20;80.40;;;;;;4951880;29;20027;-83
2022/01/23 08:22:37;;;;;;;17.17;16.37;;;5.20;80.40;;;;;;4952396;29;20497;-84
2022/01/23 08:25:03;;;;;;;19.47;17.67;;;5.20;80.30;;;;;;4950783;29;20031;-83
2022/01/23 08:27:30;;;;;;;17.90;16.90;;;5.20;80.30;;;;;;4951070;28;20334;-84
2022/01/23 08:29:56;;;;;;;17.47;16.57;;;5.20;80.30;;;;;;4949350;29;20034;-83
2022/01/23 08:32:22;;;;;;;16.93;16.13;;;5.20;80.40;;;;;;4951510;28;20058;-83
2022/01/23 08:34:48;;;;;;;19.03;17.93;;;5.20;80.30;;;;;;4967432;28;20031;-84
2022/01/23 08:37:14;;;;;;;17.20;16.40;;;5.20;80.30;;;;;;4964451;28;20043;-84
2022/01/23 08:39:41;;;;;;;23.90;22.70;;;5.10;80.20;;;;;;4951077;29;20027;-82
2022/01/23 08:42:09;;;;;;;17.63;16.67;;;5.10;80.40;;;;;;4951805;29;20393;-81
2022/01/23 08:44:35;;;;;;;19.90;18.80;;;5.10;80.40;;;;;;4950527;29;20034;-81
2022/01/23 08:47:02;;;;;;;19.47;18.57;;;5.10;80.40;;;;;;4953813;28;20031;-84
2022/01/23 08:49:28;;;;;;;18.13;17.33;;;5.10;80.40;;;;;;4939391;28;20107;-83
2022/01/23 08:51:55;;;;;;;17.40;16.50;;;5.20;80.40;;;;;;4952716;28;20054;-84
2022/01/23 08:54:21;;;;;;;20.30;19.10;;;5.20;80.40;;;;;;4951469;29;20061;-84
2022/01/23 08:56:47;;;;;;;17.63;16.83;;;5.20;80.40;;;;;;4951714;28;20039;-87
2022/01/23 08:59:14;;;;;;;20.77;19.77;;;5.20;80.40;;;;;;4951373;29;20039;-87
2022/01/23 09:01:40;;;;;;;19.53;18.53;;;5.20;80.40;;;;;;4950219;28;20039;-87
2022/01/23 09:04:07;;;;;;;18.37;17.47;;;5.20;80.40;;;;;;4948439;28;20505;-87
2022/01/23 09:06:33;;;;;;;18.57;17.57;;;5.20;80.40;;;;;;4935363;29;20046;-84
2022/01/23 09:09:00;;;;;;;19.40;18.40;;;5.20;80.40;;;;;;4952102;29;20031;-83
2022/01/23 09:14:10;;;;;;;18.57;17.37;;;5.20;80.40;;;;;;4956376;28;20034;-83
2022/01/23 09:16:38;;;;;;;18.03;17.13;;;5.20;80.40;;;;;;4950924;28;20525;-83
2022/01/23 09:19:04;;;;;;;19.10;18.20;;;5.20;80.40;;;;;;4951882;29;20647;-83
2022/01/23 09:21:30;;;;;;;18.17;17.37;;;5.20;80.40;;;;;;4919737;29;20039;-83
2022/01/23 09:23:58;;;;;;;20.17;19.03;;;5.20;80.40;;;;;;4951722;28;20482;-85
2022/01/23 09:26:24;;;;;;;17.90;17.00;;;5.20;80.40;;;;;;4950290;29;20394;-83
2022/01/23 09:28:54;;;;;;;17.17;16.27;;;5.30;80.40;;;;;;4952461;29;20039;-82
2022/01/23 09:31:32;;;;;;;18.27;17.37;;;5.30;80.30;;;;;;4965589;28;20127;-87
2022/01/23 09:33:58;;;;;;;18.43;17.53;;;5.30;80.30;;;;;;4949377;29;20031;-86
2022/01/23 09:36:24;;;;;;;20.43;19.33;;;5.30;80.30;;;;;;4950181;29;20055;-87
2022/01/23 09:38:50;;;;;;;20.40;19.00;;;5.30;80.30;;;;;;4949707;29;20478;-89
2022/01/23 09:41:17;;;;;;;21.67;20.57;;;5.30;80.30;;;;;;4951644;29;20028;-87
2022/01/23 09:43:43;;;;;;;17.77;16.87;;;5.30;80.40;;;;;;4950042;29;20035;-83
2022/01/23 09:46:09;;;;;;;19.00;18.10;;;5.20;80.40;;;;;;4934479;28;20027;-83
2022/01/23 09:48:36;;;;;;;18.73;17.67;;;5.30;80.50;;;;;;4949823;29;20050;-83
2022/01/23 09:51:02;;;;;;;18.30;17.40;;;5.30;80.50;;;;;;4959999;28;20542;-85
2022/01/23 09:53:29;;;;;;;19.80;18.37;;;5.30;80.50;;;;;;4949750;29;20043;-88
2022/01/23 09:56:02;;;;;;;17.27;16.47;;;5.30;80.40;;;;;;4967922;28;20031;-87
2022/01/23 09:58:28;;;;;;;19.13;17.97;;;5.30;80.70;;;;;;4934018;29;20062;-88
2022/01/23 10:00:54;;;;;;;18.23;17.07;;;5.40;80.40;;;;;;4926049;29;20040;-84
2022/01/23 10:03:20;;;;;;;17.67;16.77;;;5.40;80.20;;;;;;4942719;28;20031;-82
2022/01/23 10:05:53;;;;;;;19.13;17.87;;;5.40;80.20;;;;;;4943406;29;20517;-84
2022/01/23 10:08:20;;;;;;;17.87;16.97;;;5.40;80.20;;;;;;4949188;29;20039;-84
2022/01/23 10:10:51;;;;;;;19.07;18.07;;;5.40;80.20;;;;;;4951534;29;20031;-81
2022/01/23 10:13:21;;;;;;;17.33;16.52;;;5.50;80.10;;;;;;4948695;28;20030;-83
2022/01/23 10:15:47;;;;;;;19.60;18.40;;;5.50;80.10;;;;;;4952873;28;20054;-83
2022/01/23 10:18:13;;;;;;;19.30;18.40;;;5.50;80.00;;;;;;4953347;29;20034;-84
2022/01/23 10:20:39;;;;;;;20.03;19.10;;;5.50;80.00;;;;;;4941824;29;20031;-83
2022/01/23 10:23:05;;;;;;;17.97;17.07;;;5.50;80.00;;;;;;4952204;29;20497;-83
2022/01/23 10:25:32;;;;;;;17.27;16.47;;;5.40;80.00;;;;;;4948841;29;20054;-83
2022/01/23 10:28:06;;;;;;;18.33;17.37;;;5.40;80.00;;;;;;4949253;29;20035;-83
2022/01/23 10:30:39;;;;;;;17.13;16.33;;;5.50;80.20;;;;;;4952346;28;20516;-81
2022/01/23 10:33:10;;;;;;;17.53;16.73;;;5.40;80.20;;;;;;4952316;28;20043;-83
2022/01/23 10:35:54;;;;;;;20.88;19.48;;;5.40;80.20;;;;;;4948502;28;20047;-83
2022/01/23 10:38:21;;;;;;;17.87;16.83;;;5.50;80.20;;;;;;4952691;29;20035;-83
2022/01/23 10:40:52;;;;;;;18.63;17.73;;;5.50;80.10;;;;;;4954679;28;20047;-83
2022/01/23 10:48:36;;;;;;;17.33;16.53;;;5.50;80.00;;;;;;4952737;28;20492;-88
2022/01/23 10:51:21;;;;;;;;;;;5.60;80.00;;;;;;4951087;29;20504;-84
2022/01/23 10:54:16;;;;;;;17.00;16.20;;;5.60;80.00;;;;;;4952457;29;19934;-90
2022/01/23 10:57:06;;;;;;;18.10;17.20;;;5.60;79.90;;;;;;4945683;28;20055;-85
2022/01/23 10:59:43;;;;;;;17.33;16.53;;;5.60;79.80;;;;;;4936788;28;20039;-88
2022/01/23 11:02:11;;;;;;;18.07;17.23;;;5.50;79.90;;;;;;4953364;28;20031;-85
2022/01/23 11:05:06;;;;;;;18.33;17.43;;;5.50;80.00;;;;;;4967185;28;20389;-87
2022/01/23 11:07:33;;;;;;;19.63;18.67;;;5.50;80.10;;;;;;4954167;29;20038;-88
2022/01/23 11:10:20;;;;;;;17.73;16.93;;;5.50;80.00;;;;;;4934440;29;20032;-88
2022/01/23 11:18:08;;;;;;;21.70;19.83;;;5.50;80.00;;;;;;4966467;28;20055;-86
2022/01/23 11:20:36;;;;;;;18.37;17.47;;;5.50;80.10;;;;;;4952814;29;20046;-87
2022/01/23 11:23:22;;;;;;;18.30;17.40;;;5.50;80.10;;;;;;4954669;29;20038;-87
2022/01/23 11:25:51;;;;;;;17.43;16.63;;;5.50;80.10;;;;;;4951571;28;20521;-87
2022/01/23 11:28:17;;;;;;;19.30;18.40;;;5.50;80.20;;;;;;4953707;29;20043;-88
2022/01/23 11:30:45;;;;;;;21.90;20.83;;;5.50;80.10;;;;;;4967035;28;20039;-89
2022/01/23 11:33:14;;;;;;;17.83;16.93;;;5.60;80.10;;;;;;4953732;29;20043;-85
2022/01/23 11:35:40;;;;;;;17.20;16.40;;;5.50;80.10;;;;;;4957935;28;20034;-86
2022/01/23 11:38:12;;;;;;;18.33;17.43;;;5.60;80.10;;;;;;4950476;28;20992;-85
2022/01/23 11:50:36;;;;;;;18.33;17.43;;;5.60;80.10;;;;;;4957172;28;20047;-89
2022/01/23 11:54:39;;;;;;;18.47;17.63;;;5.50;80.10;;;;;;4956303;28;20430;-84
2022/01/23 11:57:40;;;;;;;19.73;18.73;;;5.50;80.10;;;;;;4952216;28;20398;-84
2022/01/23 12:00:13;;;;;;;18.43;17.57;;;5.50;80.20;;;;;;4949978;28;20030;-84
2022/01/23 12:02:42;;;;;;;17.23;16.33;;;5.60;80.20;;;;;;4951048;29;20043;-84
2022/01/23 12:05:20;;;;;;;18.13;17.23;;;5.50;80.10;;;;;;4952749;29;20023;-84
2022/01/23 12:08:18;;;;;;;17.67;16.77;;;5.60;80.10;;;;;;4951211;29;20031;-84
2022/01/23 12:11:23;;;;;;;17.10;16.30;;;5.60;80.10;;;;;;4948716;29;20027;-85
2022/01/23 12:17:01;;;;;;;17.03;16.23;;;5.60;79.90;;;;;;4954328;28;20058;-83
2022/01/23 12:19:28;;;;;;;18.43;17.53;;;5.60;80.00;;;;;;4950009;28;20039;-84
2022/01/23 12:21:55;;;;;;;18.50;17.60;;;5.60;80.00;;;;;;4953908;28;20030;-83
2022/01/23 12:24:23;;;;;;;18.13;17.33;;;5.60;80.00;;;;;;4942061;29;20042;-84
2022/01/23 12:26:50;;;;;;;21.13;20.00;;;5.60;80.00;;;;;;4942209;29;20374;-83
2022/01/23 12:29:18;;;;;;;18.80;17.90;;;5.60;80.10;;;;;;4918305;29;20044;-83
2022/01/23 12:31:45;;;;;;;18.67;17.77;;;5.60;80.20;;;;;;4951259;28;20398;-83
2022/01/23 12:34:11;;;;;;;26.67;25.37;;;5.60;80.30;;;;;;4949513;29;20035;-83
2022/01/23 12:36:38;;;;;;;17.60;16.70;;;5.50;80.90;;;;;;4949382;28;20039;-83
2022/01/23 12:39:07;;;;;;;17.63;16.83;;;5.50;80.20;;;;;;4935615;29;20042;-84
2022/01/23 12:41:37;;;;;;;17.63;16.83;;;5.60;80.30;;;;;;4962056;28;20043;-86
2022/01/23 12:44:08;;;;;;;18.87;17.77;;;5.60;80.20;;;;;;4925369;29;20034;-86
2022/01/23 12:46:49;;;;;;;25.00;23.75;;;5.60;80.30;;;;;;4945658;28;20035;-86
2022/01/23 12:49:19;;;;;;;17.13;16.30;;;5.80;80.40;;;;;;4959643;28;20475;-86
2022/01/23 12:51:47;;;;;;;18.02;17.15;;;5.90;80.30;;;;;;4928358;29;20051;-85
2022/01/23 12:54:21;;;;;;;17.17;16.37;;;6.10;80.40;;;;;;4955521;28;20026;-88
2022/01/23 12:56:49;;;;;;;18.23;17.40;;;6.20;80.20;;;;;;4951814;28;20031;-87
2022/01/23 12:59:31;;;;;;;18.37;17.47;;;6.30;80.10;;;;;;4950510;29;20043;-86
2022/01/23 13:02:06;;;;;;;18.27;17.37;;;6.40;80.10;;;;;;4953664;28;20043;-84
2022/01/23 13:04:44;;;;;;;17.10;16.23;;;6.40;80.10;;;;;;4949736;28;20051;-85
2022/01/23 13:07:34;;;;;;;17.30;16.47;;;6.50;80.30;;;;;;4941622;29;20050;-85
2022/01/23 13:10:22;;;;;;;18.00;17.10;;;6.60;80.30;;;;;;4946023;29;20028;-85
2022/01/23 13:32:08;;;;;;;19.63;18.73;;;6.90;80.40;;;;;;4948250;28;20046;-86
2022/01/23 13:34:37;;;;;;;18.77;17.87;;;6.90;80.20;;;;;;4946200;29;20043;-85
2022/01/23 13:37:07;;;;;;;18.70;17.70;;;7.00;80.30;;;;;;4952085;28;20032;-85
2022/01/23 13:39:38;;;;;;;19.80;18.83;;;7.00;80.00;;;;;;4941067;29;20024;-85
2022/01/23 13:51:18;;;;;;;20.77;19.60;;;6.90;80.00;;;;;;4938036;29;20540;-85
2022/01/23 13:58:38;;;;;;;18.20;17.37;;;7.00;79.80;;;;;;4953693;28;20050;-86
2022/01/23 14:01:30;;;;;;;22.83;21.73;;;7.00;79.60;;;;;;4948953;28;20375;-85
2022/01/23 14:03:55;;;;;;;18.07;17.27;;;6.90;79.40;;;;;;4948503;29;20493;-85
2022/01/23 14:06:22;;;;;;;20.00;18.90;;;6.90;79.50;;;;;;4924696;29;20086;-86
2022/01/23 14:09:08;;;;;;;18.60;17.70;;;6.90;79.60;;;;;;4946733;29;20035;-85
2022/01/23 14:11:34;;;;;;;18.13;17.20;;;6.80;79.50;;;;;;4922810;28;20031;-86
2022/01/23 14:14:10;;;;;;;18.93;18.03;;;6.80;79.50;;;;;;4936457;29;20040;-86
2022/01/23 14:16:36;;;;;;;18.63;17.63;;;6.80;79.50;;;;;;4970306;28;20058;-86
2022/01/23 14:19:29;;;;;;;20.50;19.03;;;6.70;79.30;;;;;;4952058;29;20492;-85
2022/01/23 14:21:57;;;;;;;18.10;17.00;;;6.70;79.40;;;;;;4951954;29;20046;-86
2022/01/23 14:24:29;;;;;;;17.87;17.07;;;6.60;79.30;;;;;;4946556;29;20023;-86
2022/01/23 14:27:04;;;;;;;19.40;18.23;;;6.60;79.30;;;;;;4950778;29;20032;-85
2022/01/23 14:29:30;;;;;;;17.80;17.00;;;6.60;79.40;;;;;;4955098;29;20370;-86
2022/01/23 14:32:14;;;;;;;19.50;18.30;;;6.50;79.40;;;;;;4954019;29;20042;-86
2022/01/23 14:34:41;;;;;;;18.43;17.60;;;6.60;79.40;;;;;;4952997;29;20035;-85
2022/01/23 14:37:07;;;;;;;18.70;17.80;;;6.60;79.30;;;;;;4950821;29;20389;-85
2022/01/23 14:39:35;;;;;;;17.80;17.00;;;6.60;79.20;;;;;;4968139;28;20035;-86
2022/01/23 14:42:17;;;;;;;18.20;17.40;;;6.60;79.20;;;;;;4957672;29;20034;-85
2022/01/23 14:44:43;;;;;;;18.50;17.60;;;6.60;79.20;;;;;;4944734;28;20397;-83
2022/01/23 14:47:10;;;;;;;21.00;20.00;;;6.60;79.00;;;;;;4941628;28;20039;-83
2022/01/23 14:49:37;;;;;;;19.00;18.10;;;6.50;78.90;;;;;;4954619;28;20051;-82
2022/01/23 14:52:08;;;;;;;29.80;28.33;;;6.40;79.00;;;;;;4953055;28;20410;-82
2022/01/23 14:54:35;;;;;;;18.20;17.40;;;6.30;79.20;;;;;;4958666;28;20210;-81
2022/01/23 14:57:02;;;;;;;17.50;16.70;;;6.20;79.10;;;;;;4951725;28;20062;-82
2022/01/23 14:59:29;;;;;;;18.40;17.60;;;6.10;80.00;;;;;;4951553;29;20055;-83
2022/01/23 15:01:56;;;;;;;17.67;16.83;;;6.00;79.30;;;;;;4949767;28;20039;-82
2022/01/23 15:04:23;;;;;;;18.60;17.70;;;6.00;79.50;;;;;;4946018;29;20375;-82
2022/01/23 15:06:51;;;;;;;18.17;17.27;;;6.00;79.40;;;;;;4946976;29;20063;-82
2022/01/23 15:09:18;;;;;;;17.90;17.10;;;6.00;79.40;;;;;;4949593;29;20466;-82
2022/01/23 15:11:44;;;;;;;22.27;21.17;;;6.00;79.40;;;;;;4952172;29;20035;-82
2022/01/23 15:14:10;;;;;;;23.57;22.47;;;5.90;79.30;;;;;;4946305;29;20042;-82
2022/01/23 15:16:37;;;;;;;19.03;18.03;;;6.00;79.40;;;;;;4967943;28;20039;-82
2022/01/23 15:19:03;;;;;;;18.23;17.40;;;5.90;79.30;;;;;;4947833;29;20393;-82
2022/01/23 15:21:30;;;;;;;17.93;17.13;;;5.90;79.30;;;;;;4950657;28;20371;-82
2022/01/23 15:23:56;;;;;;;19.00;18.10;;;5.90;79.40;;;;;;4949609;29;20035;-82
2022/01/23 15:26:26;;;;;;;16.77;15.97;;;5.90;79.40;;;;;;4946304;29;20047;-82
2022/01/23 15:28:52;;;;;;;18.47;17.40;;;5.90;79.40;;;;;;4950666;29;20498;-82
2022/01/23 15:31:18;;;;;;;18.37;17.47;;;5.90;79.40;;;;;;4959174;28;20028;-83
2022/01/23 15:33:44;;;;;;;17.60;16.50;;;5.90;79.40;;;;;;4942362;29;20051;-83
2022/01/23 15:36:10;;;;;;;19.20;18.30;;;5.90;79.40;;;;;;4929331;29;20058;-82
2022/01/23 15:38:41;;;;;;;17.73;16.93;;;5.90;79.30;;;;;;4940474;29;20047;-82
2022/01/23 15:41:08;;;;;;;;;;;5.90;79.30;;;;;;4946840;28;20483;-85
2022/01/23 15:43:34;;;;;;;20.03;19.03;;;5.90;79.30;;;;;;4952746;29;19911;-83
2022/01/23 15:46:00;;;;;;;17.83;17.03;;;5.90;79.30;;;;;;4951683;28;20042;-83
2022/01/23 15:48:30;;;;;;;17.83;16.73;;;5.90;79.30;;;;;;4934009;29;20501;-83
2022/01/23 15:51:00;;;;;;;17.10;16.30;;;5.90;79.30;;;;;;4953344;28;20047;-82
2022/01/23 15:53:26;;;;;;;17.50;16.70;;;5.90;79.40;;;;;;4951403;29;20044;-82
2022/01/23 15:55:52;;;;;;;16.97;16.17;;;5.90;79.40;;;;;;4949776;29;20039;-81
2022/01/23 15:58:18;;;;;;;22.17;21.10;;;5.90;79.50;;;;;;4964272;28;20043;-83
2022/01/23 16:00:45;;;;;;;17.73;16.57;;;5.90;79.40;;;;;;4933766;29;20035;-82
2022/01/23 16:03:11;;;;;;;16.10;15.40;;;5.90;79.60;;;;;;4950302;29;20035;-83
2022/01/23 16:05:37;;;;;;;19.27;18.37;;;5.90;79.60;;;;;;4948362;29;20049;-83
2022/01/23 16:08:03;;;;;;;17.17;16.30;;;5.80;79.50;;;;;;4935186;28;20031;-81
2022/01/23 16:10:30;;;;;;;17.03;16.13;;;5.90;79.60;;;;;;4944672;29;20044;-82